Flaxton, North Dakota
Current Conditions -  °F | °C
As of 12:00 AM on Tuesday 21 Oct 2014 (Local Time) from CYEN Reporting Station
Clear Clear  
Wind Chill: 50°   Ceiling: Unl
Heat Index: 50°   Visibility: 15mi
Dew Point: 41°   Wind: 8mph
Humidity: 71%   Direction: 140°SE
Pressure: 29.8"   Gusts: NA
Location:  48.9°N, 102.39°W
Report Text: CYEN 210500Z 14007KT 15SM SKC 10/05 A2980 RMK SLP105
Loading
Personal Weather Stations






























Interactive Weather Map
Tropical Storm Tracking
New forecast layout! Learn more

10-Day Weather Forecast

Advertisements
Track Severe Weather on mobile